sensor_id;sensor_type;location;lat;lon;timestamp;P1;durP1;ratioP1;P2;durP2;ratioP2
47749;SDS011;49810;48.160;10.812;2023-01-30T00:01:43;61.30;;;27.05;;
47749;SDS011;49810;48.160;10.812;2023-01-30T00:04:12;61.28;;;27.65;;
47749;SDS011;49810;48.160;10.812;2023-01-30T00:06:42;61.38;;;25.83;;
47749;SDS011;49810;48.160;10.812;2023-01-30T00:09:11;67.75;;;28.15;;
47749;SDS011;49810;48.160;10.812;2023-01-30T00:11:40;60.10;;;26.75;;
47749;SDS011;49810;48.160;10.812;2023-01-30T00:14:08;65.65;;;26.80;;
47749;SDS011;49810;48.160;10.812;2023-01-30T00:16:36;62.15;;;28.98;;
47749;SDS011;49810;48.160;10.812;2023-01-30T00:19:04;61.85;;;26.70;;
47749;SDS011;49810;48.160;10.812;2023-01-30T00:21:32;62.10;;;26.17;;
47749;SDS011;49810;48.160;10.812;2023-01-30T00:23:59;61.65;;;27.55;;
47749;SDS011;49810;48.160;10.812;2023-01-30T00:26:27;61.40;;;26.83;;
47749;SDS011;49810;48.160;10.812;2023-01-30T00:28:56;58.25;;;26.23;;
47749;SDS011;49810;48.160;10.812;2023-01-30T00:31:24;62.75;;;27.17;;
47749;SDS011;49810;48.160;10.812;2023-01-30T00:33:52;59.03;;;25.83;;
47749;SDS011;49810;48.160;10.812;2023-01-30T00:36:22;63.78;;;26.25;;
47749;SDS011;49810;48.160;10.812;2023-01-30T00:38:50;55.42;;;25.30;;
47749;SDS011;49810;48.160;10.812;2023-01-30T00:41:18;63.90;;;26.85;;
47749;SDS011;49810;48.160;10.812;2023-01-30T00:43:45;64.43;;;26.73;;
47749;SDS011;49810;48.160;10.812;2023-01-30T00:46:32;59.90;;;25.67;;
47749;SDS011;49810;48.160;10.812;2023-01-30T00:49:18;58.15;;;24.70;;
47749;SDS011;49810;48.160;10.812;2023-01-30T00:51:47;63.22;;;26.42;;
47749;SDS011;49810;48.160;10.812;2023-01-30T00:54:17;59.83;;;25.63;;
47749;SDS011;49810;48.160;10.812;2023-01-30T00:56:45;61.25;;;25.50;;
47749;SDS011;49810;48.160;10.812;2023-01-30T00:59:12;63.38;;;26.08;;
47749;SDS011;49810;48.160;10.812;2023-01-30T01:01:41;59.30;;;25.67;;
47749;SDS011;49810;48.160;10.812;2023-01-30T01:04:09;62.47;;;27.65;;
47749;SDS011;49810;48.160;10.812;2023-01-30T01:06:37;55.80;;;25.83;;
47749;SDS011;49810;48.160;10.812;2023-01-30T01:09:05;61.70;;;27.55;;
47749;SDS011;49810;48.160;10.812;2023-01-30T01:11:33;61.03;;;27.90;;
47749;SDS011;49810;48.160;10.812;2023-01-30T01:14:01;62.47;;;28.33;;
47749;SDS011;49810;48.160;10.812;2023-01-30T01:16:30;60.28;;;27.75;;
47749;SDS011;49810;48.160;10.812;2023-01-30T01:19:00;66.18;;;27.77;;
47749;SDS011;49810;48.160;10.812;2023-01-30T01:21:28;60.85;;;26.92;;
47749;SDS011;49810;48.160;10.812;2023-01-30T01:23:56;65.28;;;27.70;;
47749;SDS011;49810;48.160;10.812;2023-01-30T01:26:24;63.08;;;28.10;;
47749;SDS011;49810;48.160;10.812;2023-01-30T01:28:53;60.20;;;26.73;;
47749;SDS011;49810;48.160;10.812;2023-01-30T01:31:21;63.55;;;27.55;;
47749;SDS011;49810;48.160;10.812;2023-01-30T01:33:50;64.68;;;27.67;;
47749;SDS011;49810;48.160;10.812;2023-01-30T01:36:19;62.03;;;27.80;;
47749;SDS011;49810;48.160;10.812;2023-01-30T01:39:08;68.38;;;28.35;;
47749;SDS011;49810;48.160;10.812;2023-01-30T01:41:35;70.18;;;28.60;;
47749;SDS011;49810;48.160;10.812;2023-01-30T01:44:03;63.15;;;27.80;;
47749;SDS011;49810;48.160;10.812;2023-01-30T01:46:32;68.72;;;29.70;;
47749;SDS011;49810;48.160;10.812;2023-01-30T01:49:01;63.80;;;27.20;;
47749;SDS011;49810;48.160;10.812;2023-01-30T01:51:32;63.85;;;28.00;;
47749;SDS011;49810;48.160;10.812;2023-01-30T01:54:01;64.40;;;27.92;;
47749;SDS011;49810;48.160;10.812;2023-01-30T01:56:30;70.15;;;29.42;;
47749;SDS011;49810;48.160;10.812;2023-01-30T01:59:00;65.38;;;27.48;;
47749;SDS011;49810;48.160;10.812;2023-01-30T02:01:28;65.38;;;28.33;;
47749;SDS011;49810;48.160;10.812;2023-01-30T02:03:57;57.08;;;26.08;;
47749;SDS011;49810;48.160;10.812;2023-01-30T02:06:27;60.40;;;25.98;;
47749;SDS011;49810;48.160;10.812;2023-01-30T02:08:57;63.30;;;27.23;;
47749;SDS011;49810;48.160;10.812;2023-01-30T02:11:28;60.58;;;25.58;;
47749;SDS011;49810;48.160;10.812;2023-01-30T02:13:56;62.92;;;26.65;;
47749;SDS011;49810;48.160;10.812;2023-01-30T02:16:27;62.55;;;27.00;;
47749;SDS011;49810;48.160;10.812;2023-01-30T02:18:55;57.75;;;25.77;;
47749;SDS011;49810;48.160;10.812;2023-01-30T02:21:46;53.53;;;24.23;;
47749;SDS011;49810;48.160;10.812;2023-01-30T02:24:24;63.38;;;26.83;;
47749;SDS011;49810;48.160;10.812;2023-01-30T02:27:01;59.92;;;26.40;;
47749;SDS011;49810;48.160;10.812;2023-01-30T02:30:01;59.50;;;25.45;;
47749;SDS011;49810;48.160;10.812;2023-01-30T02:32:33;59.50;;;26.05;;
47749;SDS011;49810;48.160;10.812;2023-01-30T02:35:07;58.37;;;26.67;;
47749;SDS011;49810;48.160;10.812;2023-01-30T02:37:44;64.05;;;26.35;;
47749;SDS011;49810;48.160;10.812;2023-01-30T02:40:15;57.97;;;25.08;;
47749;SDS011;49810;48.160;10.812;2023-01-30T02:42:47;59.10;;;23.88;;
47749;SDS011;49810;48.160;10.812;2023-01-30T02:45:21;56.03;;;25.10;;
47749;SDS011;49810;48.160;10.812;2023-01-30T02:47:52;65.43;;;26.90;;
47749;SDS011;49810;48.160;10.812;2023-01-30T02:50:23;62.80;;;26.13;;
47749;SDS011;49810;48.160;10.812;2023-01-30T02:52:52;61.95;;;26.10;;
47749;SDS011;49810;48.160;10.812;2023-01-30T02:55:23;57.78;;;24.38;;
47749;SDS011;49810;48.160;10.812;2023-01-30T02:57:52;61.03;;;25.95;;
47749;SDS011;49810;48.160;10.812;2023-01-30T03:00:21;56.28;;;24.10;;
47749;SDS011;49810;48.160;10.812;2023-01-30T03:03:04;56.47;;;25.23;;
47749;SDS011;49810;48.160;10.812;2023-01-30T03:05:43;56.08;;;24.88;;
47749;SDS011;49810;48.160;10.812;2023-01-30T03:08:16;56.20;;;25.23;;
47749;SDS011;49810;48.160;10.812;2023-01-30T03:10:51;52.67;;;22.13;;
47749;SDS011;49810;48.160;10.812;2023-01-30T03:13:20;58.60;;;25.23;;
47749;SDS011;49810;48.160;10.812;2023-01-30T03:15:50;57.67;;;25.45;;
47749;SDS011;49810;48.160;10.812;2023-01-30T03:18:21;54.85;;;21.85;;
47749;SDS011;49810;48.160;10.812;2023-01-30T03:20:50;61.28;;;26.42;;
47749;SDS011;49810;48.160;10.812;2023-01-30T03:23:18;57.38;;;25.88;;
47749;SDS011;49810;48.160;10.812;2023-01-30T03:25:46;57.70;;;26.00;;
47749;SDS011;49810;48.160;10.812;2023-01-30T03:28:16;51.65;;;24.02;;
47749;SDS011;49810;48.160;10.812;2023-01-30T03:30:45;54.53;;;24.17;;
47749;SDS011;49810;48.160;10.812;2023-01-30T03:33:13;53.22;;;23.60;;
47749;SDS011;49810;48.160;10.812;2023-01-30T03:35:47;58.65;;;24.45;;
47749;SDS011;49810;48.160;10.812;2023-01-30T03:38:15;61.03;;;25.05;;
47749;SDS011;49810;48.160;10.812;2023-01-30T03:40:45;55.65;;;23.85;;
47749;SDS011;49810;48.160;10.812;2023-01-30T03:43:13;58.15;;;24.05;;
47749;SDS011;49810;48.160;10.812;2023-01-30T03:45:41;52.50;;;24.52;;
47749;SDS011;49810;48.160;10.812;2023-01-30T03:48:09;57.55;;;25.23;;
47749;SDS011;49810;48.160;10.812;2023-01-30T03:50:37;60.50;;;25.27;;
47749;SDS011;49810;48.160;10.812;2023-01-30T03:53:06;56.75;;;24.63;;
47749;SDS011;49810;48.160;10.812;2023-01-30T03:55:34;52.20;;;23.58;;
47749;SDS011;49810;48.160;10.812;2023-01-30T03:58:02;51.63;;;24.27;;
47749;SDS011;49810;48.160;10.812;2023-01-30T04:00:31;61.70;;;26.10;;
47749;SDS011;49810;48.160;10.812;2023-01-30T04:03:00;58.10;;;26.05;;
47749;SDS011;49810;48.160;10.812;2023-01-30T04:05:28;51.45;;;24.13;;
47749;SDS011;49810;48.160;10.812;2023-01-30T04:08:01;56.33;;;23.85;;
47749;SDS011;49810;48.160;10.812;2023-01-30T04:10:31;54.88;;;23.70;;
47749;SDS011;49810;48.160;10.812;2023-01-30T04:12:59;56.08;;;25.83;;
47749;SDS011;49810;48.160;10.812;2023-01-30T04:15:27;53.88;;;24.33;;
47749;SDS011;49810;48.160;10.812;2023-01-30T04:18:27;53.90;;;23.38;;
47749;SDS011;49810;48.160;10.812;2023-01-30T04:21:00;54.33;;;24.08;;
47749;SDS011;49810;48.160;10.812;2023-01-30T04:23:33;54.22;;;24.15;;
47749;SDS011;49810;48.160;10.812;2023-01-30T04:26:03;57.42;;;25.40;;
47749;SDS011;49810;48.160;10.812;2023-01-30T04:28:35;58.50;;;25.35;;
47749;SDS011;49810;48.160;10.812;2023-01-30T04:31:03;56.10;;;24.23;;
47749;SDS011;49810;48.160;10.812;2023-01-30T04:33:36;56.03;;;26.33;;
47749;SDS011;49810;48.160;10.812;2023-01-30T04:36:07;56.05;;;24.08;;
47749;SDS011;49810;48.160;10.812;2023-01-30T04:38:36;57.17;;;25.15;;
47749;SDS011;49810;48.160;10.812;2023-01-30T04:41:06;60.15;;;26.77;;
47749;SDS011;49810;48.160;10.812;2023-01-30T04:43:38;57.83;;;25.95;;
47749;SDS011;49810;48.160;10.812;2023-01-30T04:46:21;55.10;;;25.17;;
47749;SDS011;49810;48.160;10.812;2023-01-30T04:48:49;58.95;;;25.92;;
47749;SDS011;49810;48.160;10.812;2023-01-30T04:51:17;63.58;;;28.10;;
47749;SDS011;49810;48.160;10.812;2023-01-30T04:53:46;58.85;;;25.15;;
47749;SDS011;49810;48.160;10.812;2023-01-30T04:56:15;58.67;;;25.55;;
47749;SDS011;49810;48.160;10.812;2023-01-30T04:58:43;56.15;;;24.75;;
47749;SDS011;49810;48.160;10.812;2023-01-30T05:01:19;57.65;;;25.10;;
47749;SDS011;49810;48.160;10.812;2023-01-30T05:03:48;51.25;;;22.25;;
47749;SDS011;49810;48.160;10.812;2023-01-30T05:06:17;53.00;;;23.02;;
47749;SDS011;49810;48.160;10.812;2023-01-30T05:08:47;56.80;;;24.45;;
47749;SDS011;49810;48.160;10.812;2023-01-30T05:11:17;54.40;;;23.52;;
47749;SDS011;49810;48.160;10.812;2023-01-30T05:13:45;55.40;;;24.85;;
47749;SDS011;49810;48.160;10.812;2023-01-30T05:16:14;52.85;;;22.10;;
47749;SDS011;49810;48.160;10.812;2023-01-30T05:18:42;55.45;;;24.15;;
47749;SDS011;49810;48.160;10.812;2023-01-30T05:21:11;58.00;;;23.50;;
47749;SDS011;49810;48.160;10.812;2023-01-30T05:23:39;56.13;;;24.73;;
47749;SDS011;49810;48.160;10.812;2023-01-30T05:26:07;52.58;;;24.27;;
47749;SDS011;49810;48.160;10.812;2023-01-30T05:28:37;53.15;;;24.50;;
47749;SDS011;49810;48.160;10.812;2023-01-30T05:31:05;47.55;;;23.30;;
47749;SDS011;49810;48.160;10.812;2023-01-30T05:33:34;52.92;;;24.30;;
47749;SDS011;49810;48.160;10.812;2023-01-30T05:36:02;54.20;;;23.13;;
47749;SDS011;49810;48.160;10.812;2023-01-30T05:38:30;51.80;;;22.67;;
47749;SDS011;49810;48.160;10.812;2023-01-30T05:40:58;50.22;;;23.08;;
47749;SDS011;49810;48.160;10.812;2023-01-30T05:43:27;47.38;;;20.92;;
47749;SDS011;49810;48.160;10.812;2023-01-30T05:45:57;47.47;;;22.70;;
47749;SDS011;49810;48.160;10.812;2023-01-30T05:48:25;49.08;;;22.10;;
47749;SDS011;49810;48.160;10.812;2023-01-30T05:50:55;54.15;;;23.25;;
47749;SDS011;49810;48.160;10.812;2023-01-30T05:53:23;49.03;;;21.00;;
47749;SDS011;49810;48.160;10.812;2023-01-30T05:55:56;47.78;;;21.30;;
47749;SDS011;49810;48.160;10.812;2023-01-30T05:58:24;53.38;;;23.23;;
47749;SDS011;49810;48.160;10.812;2023-01-30T06:00:59;52.58;;;23.73;;
47749;SDS011;49810;48.160;10.812;2023-01-30T06:05:58;53.60;;;23.77;;
47749;SDS011;49810;48.160;10.812;2023-01-30T06:08:31;52.53;;;23.35;;
47749;SDS011;49810;48.160;10.812;2023-01-30T06:10:59;56.17;;;24.65;;
47749;SDS011;49810;48.160;10.812;2023-01-30T06:13:35;53.50;;;25.23;;
47749;SDS011;49810;48.160;10.812;2023-01-30T06:16:08;54.25;;;24.20;;
47749;SDS011;49810;48.160;10.812;2023-01-30T06:18:39;50.47;;;22.42;;
47749;SDS011;49810;48.160;10.812;2023-01-30T06:21:11;51.85;;;24.05;;
47749;SDS011;49810;48.160;10.812;2023-01-30T06:23:40;56.08;;;25.38;;
47749;SDS011;49810;48.160;10.812;2023-01-30T06:26:08;50.15;;;24.15;;
47749;SDS011;49810;48.160;10.812;2023-01-30T06:28:36;51.13;;;24.13;;
47749;SDS011;49810;48.160;10.812;2023-01-30T06:31:04;50.20;;;23.38;;
47749;SDS011;49810;48.160;10.812;2023-01-30T06:33:36;51.92;;;22.80;;
47749;SDS011;49810;48.160;10.812;2023-01-30T06:36:07;48.67;;;22.13;;
47749;SDS011;49810;48.160;10.812;2023-01-30T06:38:35;53.28;;;21.48;;
47749;SDS011;49810;48.160;10.812;2023-01-30T06:41:03;47.78;;;21.38;;
47749;SDS011;49810;48.160;10.812;2023-01-30T06:43:31;47.30;;;22.23;;
47749;SDS011;49810;48.160;10.812;2023-01-30T06:45:59;47.45;;;21.85;;
47749;SDS011;49810;48.160;10.812;2023-01-30T06:48:27;47.72;;;22.13;;
47749;SDS011;49810;48.160;10.812;2023-01-30T06:50:56;49.78;;;23.08;;
47749;SDS011;49810;48.160;10.812;2023-01-30T06:53:27;50.63;;;22.95;;
47749;SDS011;49810;48.160;10.812;2023-01-30T06:55:56;48.63;;;22.23;;
47749;SDS011;49810;48.160;10.812;2023-01-30T06:58:24;49.50;;;21.98;;
47749;SDS011;49810;48.160;10.812;2023-01-30T07:00:52;53.67;;;22.83;;
47749;SDS011;49810;48.160;10.812;2023-01-30T07:03:20;48.08;;;21.25;;
47749;SDS011;49810;48.160;10.812;2023-01-30T07:05:49;46.05;;;21.50;;
47749;SDS011;49810;48.160;10.812;2023-01-30T07:08:18;49.63;;;22.38;;
47749;SDS011;49810;48.160;10.812;2023-01-30T07:10:49;49.10;;;23.63;;
47749;SDS011;49810;48.160;10.812;2023-01-30T07:13:17;53.83;;;22.30;;
47749;SDS011;49810;48.160;10.812;2023-01-30T07:15:45;49.10;;;22.67;;
47749;SDS011;49810;48.160;10.812;2023-01-30T07:18:13;48.25;;;21.00;;
47749;SDS011;49810;48.160;10.812;2023-01-30T07:20:41;53.28;;;23.13;;
47749;SDS011;49810;48.160;10.812;2023-01-30T07:23:12;51.78;;;23.77;;
47749;SDS011;49810;48.160;10.812;2023-01-30T07:25:41;61.50;;;25.13;;
47749;SDS011;49810;48.160;10.812;2023-01-30T07:28:09;53.80;;;23.77;;
47749;SDS011;49810;48.160;10.812;2023-01-30T07:30:37;48.97;;;20.38;;
47749;SDS011;49810;48.160;10.812;2023-01-30T07:33:05;52.22;;;22.92;;
47749;SDS011;49810;48.160;10.812;2023-01-30T07:35:34;47.88;;;21.05;;
47749;SDS011;49810;48.160;10.812;2023-01-30T07:38:02;46.42;;;23.08;;
47749;SDS011;49810;48.160;10.812;2023-01-30T07:40:30;45.47;;;20.00;;
47749;SDS011;49810;48.160;10.812;2023-01-30T07:43:02;53.45;;;23.15;;
47749;SDS011;49810;48.160;10.812;2023-01-30T07:45:33;46.38;;;19.77;;
47749;SDS011;49810;48.160;10.812;2023-01-30T07:48:02;45.30;;;19.38;;
47749;SDS011;49810;48.160;10.812;2023-01-30T07:50:30;49.83;;;20.83;;
47749;SDS011;49810;48.160;10.812;2023-01-30T07:52:57;44.00;;;21.15;;
47749;SDS011;49810;48.160;10.812;2023-01-30T07:55:25;42.97;;;19.70;;
47749;SDS011;49810;48.160;10.812;2023-01-30T07:57:53;43.97;;;20.77;;
47749;SDS011;49810;48.160;10.812;2023-01-30T08:00:22;41.50;;;19.08;;
47749;SDS011;49810;48.160;10.812;2023-01-30T08:02:50;44.03;;;19.20;;
47749;SDS011;49810;48.160;10.812;2023-01-30T08:05:18;39.10;;;18.25;;
47749;SDS011;49810;48.160;10.812;2023-01-30T08:07:46;38.95;;;17.70;;
47749;SDS011;49810;48.160;10.812;2023-01-30T08:10:14;35.83;;;17.65;;
47749;SDS011;49810;48.160;10.812;2023-01-30T08:12:42;38.15;;;18.15;;
47749;SDS011;49810;48.160;10.812;2023-01-30T08:15:10;38.90;;;19.20;;
47749;SDS011;49810;48.160;10.812;2023-01-30T08:17:39;36.13;;;16.83;;
47749;SDS011;49810;48.160;10.812;2023-01-30T08:20:08;37.28;;;17.85;;
47749;SDS011;49810;48.160;10.812;2023-01-30T08:22:36;33.60;;;16.67;;
47749;SDS011;49810;48.160;10.812;2023-01-30T08:25:04;36.53;;;17.35;;
47749;SDS011;49810;48.160;10.812;2023-01-30T08:27:34;35.75;;;16.40;;
47749;SDS011;49810;48.160;10.812;2023-01-30T08:30:02;34.55;;;16.30;;
47749;SDS011;49810;48.160;10.812;2023-01-30T08:32:30;33.72;;;16.77;;
47749;SDS011;49810;48.160;10.812;2023-01-30T08:34:59;37.58;;;17.27;;
47749;SDS011;49810;48.160;10.812;2023-01-30T08:37:27;34.72;;;16.65;;
47749;SDS011;49810;48.160;10.812;2023-01-30T08:39:55;33.20;;;16.73;;
47749;SDS011;49810;48.160;10.812;2023-01-30T08:42:23;33.22;;;17.15;;
47749;SDS011;49810;48.160;10.812;2023-01-30T08:44:51;37.72;;;17.75;;
47749;SDS011;49810;48.160;10.812;2023-01-30T08:47:19;33.53;;;17.02;;
47749;SDS011;49810;48.160;10.812;2023-01-30T08:49:47;35.70;;;15.93;;
47749;SDS011;49810;48.160;10.812;2023-01-30T08:52:18;32.63;;;16.02;;
47749;SDS011;49810;48.160;10.812;2023-01-30T08:54:47;31.88;;;15.13;;
47749;SDS011;49810;48.160;10.812;2023-01-30T08:57:14;33.00;;;14.80;;
47749;SDS011;49810;48.160;10.812;2023-01-30T08:59:42;29.50;;;13.80;;
47749;SDS011;49810;48.160;10.812;2023-01-30T09:02:10;28.45;;;14.10;;
47749;SDS011;49810;48.160;10.812;2023-01-30T09:04:38;32.05;;;16.45;;
47749;SDS011;49810;48.160;10.812;2023-01-30T09:07:06;31.80;;;15.98;;
47749;SDS011;49810;48.160;10.812;2023-01-30T09:09:36;34.85;;;16.27;;
47749;SDS011;49810;48.160;10.812;2023-01-30T09:12:04;34.97;;;16.38;;
47749;SDS011;49810;48.160;10.812;2023-01-30T09:14:32;33.50;;;15.73;;
47749;SDS011;49810;48.160;10.812;2023-01-30T09:16:59;31.60;;;15.65;;
47749;SDS011;49810;48.160;10.812;2023-01-30T09:19:27;32.45;;;15.77;;
47749;SDS011;49810;48.160;10.812;2023-01-30T09:21:55;37.05;;;17.20;;
47749;SDS011;49810;48.160;10.812;2023-01-30T09:24:23;33.90;;;16.55;;
47749;SDS011;49810;48.160;10.812;2023-01-30T09:26:53;33.83;;;15.38;;
47749;SDS011;49810;48.160;10.812;2023-01-30T09:29:23;29.27;;;14.30;;
47749;SDS011;49810;48.160;10.812;2023-01-30T09:31:51;32.92;;;15.70;;
47749;SDS011;49810;48.160;10.812;2023-01-30T09:34:19;30.88;;;15.50;;
47749;SDS011;49810;48.160;10.812;2023-01-30T09:36:53;28.85;;;15.13;;
47749;SDS011;49810;48.160;10.812;2023-01-30T09:39:20;28.50;;;13.40;;
47749;SDS011;49810;48.160;10.812;2023-01-30T09:42:04;27.95;;;13.98;;
47749;SDS011;49810;48.160;10.812;2023-01-30T09:44:59;29.88;;;13.18;;
47749;SDS011;49810;48.160;10.812;2023-01-30T09:47:32;26.52;;;12.80;;
47749;SDS011;49810;48.160;10.812;2023-01-30T09:50:07;26.92;;;13.85;;
47749;SDS011;49810;48.160;10.812;2023-01-30T09:52:45;22.67;;;12.45;;
47749;SDS011;49810;48.160;10.812;2023-01-30T09:55:22;23.40;;;11.52;;
47749;SDS011;49810;48.160;10.812;2023-01-30T09:57:51;26.55;;;12.90;;
47749;SDS011;49810;48.160;10.812;2023-01-30T10:00:21;23.33;;;11.48;;
47749;SDS011;49810;48.160;10.812;2023-01-30T10:02:52;27.15;;;12.40;;
47749;SDS011;49810;48.160;10.812;2023-01-30T10:05:32;30.35;;;13.13;;
47749;SDS011;49810;48.160;10.812;2023-01-30T10:08:04;27.25;;;14.27;;
47749;SDS011;49810;48.160;10.812;2023-01-30T10:10:40;26.13;;;13.27;;
47749;SDS011;49810;48.160;10.812;2023-01-30T10:13:24;32.08;;;15.40;;
47749;SDS011;49810;48.160;10.812;2023-01-30T10:15:57;34.78;;;16.33;;
47749;SDS011;49810;48.160;10.812;2023-01-30T10:21:15;24.65;;;13.23;;
47749;SDS011;49810;48.160;10.812;2023-01-30T10:23:49;26.60;;;13.70;;
47749;SDS011;49810;48.160;10.812;2023-01-30T10:26:24;26.45;;;13.15;;
47749;SDS011;49810;48.160;10.812;2023-01-30T10:28:56;28.85;;;13.30;;
47749;SDS011;49810;48.160;10.812;2023-01-30T10:31:34;29.65;;;13.88;;
47749;SDS011;49810;48.160;10.812;2023-01-30T10:34:03;27.60;;;14.35;;
47749;SDS011;49810;48.160;10.812;2023-01-30T10:36:33;30.02;;;15.27;;
47749;SDS011;49810;48.160;10.812;2023-01-30T10:39:03;27.48;;;14.60;;
47749;SDS011;49810;48.160;10.812;2023-01-30T10:41:37;29.63;;;15.55;;
47749;SDS011;49810;48.160;10.812;2023-01-30T10:44:09;29.55;;;14.65;;
47749;SDS011;49810;48.160;10.812;2023-01-30T10:46:43;31.77;;;15.30;;
47749;SDS011;49810;48.160;10.812;2023-01-30T10:49:16;28.88;;;14.55;;
47749;SDS011;49810;48.160;10.812;2023-01-30T10:51:47;28.88;;;14.48;;
47749;SDS011;49810;48.160;10.812;2023-01-30T10:54:19;26.98;;;14.02;;
47749;SDS011;49810;48.160;10.812;2023-01-30T10:56:49;27.35;;;14.20;;
47749;SDS011;49810;48.160;10.812;2023-01-30T10:59:23;29.83;;;13.70;;
47749;SDS011;49810;48.160;10.812;2023-01-30T11:01:53;29.70;;;15.48;;
47749;SDS011;49810;48.160;10.812;2023-01-30T11:04:25;29.58;;;14.57;;
47749;SDS011;49810;48.160;10.812;2023-01-30T11:06:55;28.38;;;14.43;;
47749;SDS011;49810;48.160;10.812;2023-01-30T11:09:23;27.75;;;14.95;;
47749;SDS011;49810;48.160;10.812;2023-01-30T11:11:52;31.13;;;14.80;;
47749;SDS011;49810;48.160;10.812;2023-01-30T11:14:20;34.60;;;16.23;;
47749;SDS011;49810;48.160;10.812;2023-01-30T11:16:49;29.02;;;14.65;;
47749;SDS011;49810;48.160;10.812;2023-01-30T11:19:19;33.85;;;16.98;;
47749;SDS011;49810;48.160;10.812;2023-01-30T11:21:49;29.17;;;14.25;;
47749;SDS011;49810;48.160;10.812;2023-01-30T11:24:18;29.73;;;15.38;;
47749;SDS011;49810;48.160;10.812;2023-01-30T11:26:46;33.38;;;15.73;;
47749;SDS011;49810;48.160;10.812;2023-01-30T11:29:25;30.10;;;15.52;;
47749;SDS011;49810;48.160;10.812;2023-01-30T11:31:54;31.60;;;15.48;;
47749;SDS011;49810;48.160;10.812;2023-01-30T11:34:23;31.35;;;15.07;;
47749;SDS011;49810;48.160;10.812;2023-01-30T11:36:51;29.63;;;15.63;;
47749;SDS011;49810;48.160;10.812;2023-01-30T11:39:20;34.33;;;16.95;;
47749;SDS011;49810;48.160;10.812;2023-01-30T11:41:57;28.70;;;15.60;;
47749;SDS011;49810;48.160;10.812;2023-01-30T11:44:27;27.73;;;14.13;;
47749;SDS011;49810;48.160;10.812;2023-01-30T11:46:58;31.83;;;16.45;;
47749;SDS011;49810;48.160;10.812;2023-01-30T11:49:27;27.10;;;13.70;;
47749;SDS011;49810;48.160;10.812;2023-01-30T11:52:17;31.15;;;15.38;;
47749;SDS011;49810;48.160;10.812;2023-01-30T11:54:46;29.38;;;14.45;;
47749;SDS011;49810;48.160;10.812;2023-01-30T11:57:16;31.02;;;14.77;;
47749;SDS011;49810;48.160;10.812;2023-01-30T11:59:45;29.42;;;16.30;;
47749;SDS011;49810;48.160;10.812;2023-01-30T12:02:17;28.08;;;13.73;;
47749;SDS011;49810;48.160;10.812;2023-01-30T12:04:47;32.47;;;15.38;;
47749;SDS011;49810;48.160;10.812;2023-01-30T12:07:20;32.38;;;16.88;;
47749;SDS011;49810;48.160;10.812;2023-01-30T12:09:48;30.90;;;15.32;;
47749;SDS011;49810;48.160;10.812;2023-01-30T12:12:32;33.60;;;16.27;;
47749;SDS011;49810;48.160;10.812;2023-01-30T12:15:03;30.70;;;16.27;;
47749;SDS011;49810;48.160;10.812;2023-01-30T12:17:34;30.63;;;14.57;;
47749;SDS011;49810;48.160;10.812;2023-01-30T12:20:10;28.90;;;14.60;;
47749;SDS011;49810;48.160;10.812;2023-01-30T12:22:40;29.38;;;15.35;;
47749;SDS011;49810;48.160;10.812;2023-01-30T12:25:12;30.35;;;14.63;;
47749;SDS011;49810;48.160;10.812;2023-01-30T12:27:45;28.45;;;14.00;;
47749;SDS011;49810;48.160;10.812;2023-01-30T12:30:18;33.42;;;15.00;;
47749;SDS011;49810;48.160;10.812;2023-01-30T12:32:49;28.35;;;13.27;;
47749;SDS011;49810;48.160;10.812;2023-01-30T12:35:19;28.15;;;14.02;;
47749;SDS011;49810;48.160;10.812;2023-01-30T12:37:53;25.23;;;12.70;;
47749;SDS011;49810;48.160;10.812;2023-01-30T12:40:29;27.83;;;13.18;;
47749;SDS011;49810;48.160;10.812;2023-01-30T12:43:13;27.98;;;13.80;;
47749;SDS011;49810;48.160;10.812;2023-01-30T12:45:48;27.67;;;13.43;;
47749;SDS011;49810;48.160;10.812;2023-01-30T12:48:30;30.02;;;15.27;;
47749;SDS011;49810;48.160;10.812;2023-01-30T12:51:18;29.05;;;13.40;;
47749;SDS011;49810;48.160;10.812;2023-01-30T12:53:51;27.48;;;13.80;;
47749;SDS011;49810;48.160;10.812;2023-01-30T12:58:50;29.20;;;14.02;;
47749;SDS011;49810;48.160;10.812;2023-01-30T13:01:23;28.58;;;12.35;;
47749;SDS011;49810;48.160;10.812;2023-01-30T13:06:28;26.55;;;12.25;;
47749;SDS011;49810;48.160;10.812;2023-01-30T13:09:04;26.40;;;13.63;;
47749;SDS011;49810;48.160;10.812;2023-01-30T13:11:41;26.63;;;12.88;;
47749;SDS011;49810;48.160;10.812;2023-01-30T13:14:16;27.67;;;13.77;;
47749;SDS011;49810;48.160;10.812;2023-01-30T13:16:51;25.45;;;12.25;;
47749;SDS011;49810;48.160;10.812;2023-01-30T13:19:21;27.55;;;13.60;;
47749;SDS011;49810;48.160;10.812;2023-01-30T13:22:10;32.92;;;12.30;;
47749;SDS011;49810;48.160;10.812;2023-01-30T13:24:42;27.00;;;12.98;;
47749;SDS011;49810;48.160;10.812;2023-01-30T13:27:14;26.27;;;12.95;;
47749;SDS011;49810;48.160;10.812;2023-01-30T13:29:43;25.95;;;13.50;;
47749;SDS011;49810;48.160;10.812;2023-01-30T13:32:13;26.88;;;13.35;;
47749;SDS011;49810;48.160;10.812;2023-01-30T13:34:42;27.05;;;13.00;;
47749;SDS011;49810;48.160;10.812;2023-01-30T13:37:13;30.77;;;15.05;;
47749;SDS011;49810;48.160;10.812;2023-01-30T13:39:42;25.00;;;12.82;;
47749;SDS011;49810;48.160;10.812;2023-01-30T13:42:13;27.92;;;14.25;;
47749;SDS011;49810;48.160;10.812;2023-01-30T13:44:43;23.83;;;12.68;;
47749;SDS011;49810;48.160;10.812;2023-01-30T13:47:14;31.73;;;15.02;;
47749;SDS011;49810;48.160;10.812;2023-01-30T13:49:47;25.05;;;12.10;;
47749;SDS011;49810;48.160;10.812;2023-01-30T13:52:19;25.55;;;12.95;;
47749;SDS011;49810;48.160;10.812;2023-01-30T13:54:51;23.05;;;11.57;;
47749;SDS011;49810;48.160;10.812;2023-01-30T13:57:25;22.27;;;11.38;;
47749;SDS011;49810;48.160;10.812;2023-01-30T14:00:04;23.73;;;11.95;;
47749;SDS011;49810;48.160;10.812;2023-01-30T14:02:38;25.98;;;11.63;;
47749;SDS011;49810;48.160;10.812;2023-01-30T14:08:15;21.67;;;11.77;;
47749;SDS011;49810;48.160;10.812;2023-01-30T14:10:45;24.17;;;11.30;;
47749;SDS011;49810;48.160;10.812;2023-01-30T14:13:13;22.98;;;11.48;;
47749;SDS011;49810;48.160;10.812;2023-01-30T14:15:50;24.00;;;11.70;;
47749;SDS011;49810;48.160;10.812;2023-01-30T14:18:21;24.55;;;11.85;;
47749;SDS011;49810;48.160;10.812;2023-01-30T14:20:50;25.80;;;12.20;;
47749;SDS011;49810;48.160;10.812;2023-01-30T14:23:21;27.05;;;12.73;;
47749;SDS011;49810;48.160;10.812;2023-01-30T14:25:49;25.05;;;12.35;;
47749;SDS011;49810;48.160;10.812;2023-01-30T14:34:21;25.13;;;12.15;;
47749;SDS011;49810;48.160;10.812;2023-01-30T14:37:00;25.52;;;11.75;;
47749;SDS011;49810;48.160;10.812;2023-01-30T14:39:36;27.00;;;12.15;;
47749;SDS011;49810;48.160;10.812;2023-01-30T14:47:26;27.55;;;11.98;;
47749;SDS011;49810;48.160;10.812;2023-01-30T14:50:12;22.30;;;11.25;;
47749;SDS011;49810;48.160;10.812;2023-01-30T14:52:45;21.98;;;11.20;;
47749;SDS011;49810;48.160;10.812;2023-01-30T14:55:17;23.90;;;11.90;;